Time;durP1;ratioP1;P1;durP2;ratioP2;P2;SDS_P1;SDS_P2;PMS_P1;PMS_P2;Temp;Humidity;BMP_temperature;BMP_pressure;BME280_temperature;BME280_humidity;BME280_pressure;Samples;Min_cycle;Max_cycle;Signal;HPM_P1;HPM_P2
2022/04/11 00:00:23;;;;;;;5.45;2.65;;;;;;;1.60;100.00;101964.63;2604255;31;20573;-51
2022/04/11 00:02:51;;;;;;;5.05;2.40;;;;;;;1.59;100.00;101965.59;2608015;36;20139;-54
2022/04/11 00:05:22;;;;;;;5.55;3.35;;;;;;;1.60;100.00;101961.13;2609883;54;20143;-54
2022/04/11 00:07:51;;;;;;;5.63;2.50;;;;;;;1.58;100.00;101959.38;2606121;36;20045;-54
2022/04/11 00:13:03;;;;;;;5.10;2.45;;;;;;;1.51;100.00;101949.88;2607393;36;20121;-55
2022/04/11 00:15:33;;;;;;;4.75;2.45;;;;;;;1.53;100.00;101952.50;2608590;54;20157;-50
2022/04/11 00:18:02;;;;;;;5.80;2.40;;;;;;;1.51;100.00;101947.25;2606792;31;20167;-51
2022/04/11 00:20:33;;;;;;;3.20;2.25;;;;;;;1.55;100.00;101953.31;2605675;36;20058;-54
2022/04/11 00:23:01;;;;;;;9.57;2.60;;;;;;;1.57;100.00;101951.47;2608216;36;20535;-50
2022/04/11 00:25:30;;;;;;;8.77;2.70;;;;;;;1.57;100.00;101940.88;2605914;36;21299;-53
2022/04/11 00:27:58;;;;;;;5.43;2.40;;;;;;;1.57;100.00;101941.72;2608667;36;20121;-51
2022/04/11 00:30:26;;;;;;;5.22;2.33;;;;;;;1.59;100.00;101947.00;2607182;36;20173;-53
2022/04/11 00:32:54;;;;;;;5.10;2.85;;;;;;;1.61;100.00;101939.84;2612941;31;20526;-53
2022/04/11 00:35:23;;;;;;;6.35;2.55;;;;;;;1.63;100.00;101932.69;2606955;36;20141;-55
2022/04/11 00:37:54;;;;;;;3.08;2.20;;;;;;;1.63;100.00;101935.34;2606887;31;20118;-57
2022/04/11 00:40:22;;;;;;;6.97;2.75;;;;;;;1.61;100.00;101937.19;2613253;36;20653;-52
2022/04/11 00:43:07;;;;;;;5.30;2.22;;;;;;;1.61;100.00;101923.94;2612536;54;20041;-54
2022/04/11 00:45:35;;;;;;;4.53;2.35;;;;;;;1.63;100.00;101930.03;2609507;47;20030;-53
2022/04/11 00:48:03;;;;;;;4.30;2.60;;;;;;;1.71;100.00;101914.72;2611269;36;20139;-54
2022/04/11 00:50:32;;;;;;;5.00;2.38;;;;;;;1.70;100.00;101915.63;2607990;36;20567;-54
2022/04/11 01:01:00;;;;;;;5.57;2.65;;;;;;;1.64;100.00;101913.19;2609052;54;20118;-53
2022/04/11 01:06:07;;;;;;;9.95;2.40;;;;;;;1.73;100.00;101907.56;2613799;36;20030;-52
2022/04/11 01:08:37;;;;;;;4.53;2.70;;;;;;;1.77;100.00;101911.00;2607027;36;20048;-55
2022/04/11 01:11:23;;;;;;;5.70;2.30;;;;;;;1.76;100.00;101903.94;2607144;36;20022;-54
2022/04/11 01:13:51;;;;;;;6.32;2.10;;;;;;;1.72;100.00;101902.31;2608622;36;20042;-53
2022/04/11 01:16:30;;;;;;;5.00;2.80;;;;;;;1.75;100.00;101903.09;2605349;36;20643;-55
2022/04/11 01:18:59;;;;;;;4.70;2.70;;;;;;;1.78;100.00;101898.59;2611434;36;20042;-56
2022/04/11 01:26:52;;;;;;;4.50;2.30;;;;;;;1.75;100.00;101896.91;2607505;36;20094;-52
2022/04/11 01:29:24;;;;;;;6.38;2.50;;;;;;;1.78;100.00;101899.44;2609377;36;20118;-57
2022/04/11 01:31:52;;;;;;;4.80;2.28;;;;;;;1.75;100.00;101896.91;2607111;36;20043;-57
2022/04/11 01:34:21;;;;;;;5.53;2.67;;;;;;;1.78;100.00;101901.25;2607928;36;20126;-53
2022/04/11 01:36:50;;;;;;;6.65;2.70;;;;;;;1.71;100.00;101901.47;2607100;36;20439;-52
2022/04/11 01:39:18;;;;;;;4.63;2.50;;;;;;;1.60;100.00;101913.38;2606362;36;20035;-55
2022/04/11 01:46:50;;;;;;;4.45;2.63;;;;;;;1.70;100.00;101905.03;2605989;36;20039;-55
2022/04/11 01:49:18;;;;;;;5.00;2.30;;;;;;;1.68;100.00;101901.56;2606959;36;20038;-52
2022/04/11 02:04:36;;;;;;;4.47;2.53;;;;;;;1.73;100.00;101894.31;2605740;36;20045;-56
2022/04/11 02:09:31;;;;;;;9.00;2.90;;;;;;;1.83;100.00;101894.84;2608434;39;20207;-54
2022/04/11 02:14:27;;;;;;;6.45;2.70;;;;;;;1.75;100.00;101892.47;2608238;36;20125;-54
2022/04/11 02:16:55;;;;;;;4.68;2.10;;;;;;;1.71;100.00;101888.19;2603498;36;20255;-56
2022/04/11 02:19:24;;;;;;;7.05;2.50;;;;;;;1.67;100.00;101894.53;2606497;31;20078;-55
2022/04/11 02:21:54;;;;;;;4.50;2.63;;;;;;;1.58;100.00;101894.84;2605579;36;20177;-52
2022/04/11 02:24:23;;;;;;;8.63;2.72;;;;;;;1.54;100.00;101895.88;2606046;36;20060;-56
2022/04/11 02:26:51;;;;;;;7.15;2.70;;;;;;;1.48;100.00;101893.44;2606107;36;20038;-55
2022/04/11 02:29:19;;;;;;;4.65;2.40;;;;;;;1.51;100.00;101893.31;2605564;36;20125;-53
2022/04/11 02:31:47;;;;;;;5.43;2.53;;;;;;;1.51;100.00;101893.31;2606102;36;20557;-55
2022/04/11 02:34:15;;;;;;;5.55;2.60;;;;;;;1.47;100.00;101894.34;2605776;36;20034;-54
2022/04/11 02:36:44;;;;;;;6.65;2.67;;;;;;;1.39;100.00;101892.81;2607085;36;20038;-54
2022/04/11 02:39:14;;;;;;;6.10;2.55;;;;;;;1.38;100.00;101898.16;2605916;36;20038;-53
2022/04/11 02:41:43;;;;;;;6.88;2.72;;;;;;;1.32;100.00;101893.94;2606289;36;20600;-54
2022/04/11 02:44:11;;;;;;;6.80;3.17;;;;;;;1.26;100.00;101890.63;2605960;36;20031;-56
2022/04/11 02:46:42;;;;;;;4.88;2.97;;;;;;;1.25;100.00;101895.03;2606824;36;20034;-55
2022/04/11 02:49:11;;;;;;;5.05;2.95;;;;;;;1.21;100.00;101885.47;2606938;36;21170;-51
2022/04/11 02:51:39;;;;;;;5.25;3.03;;;;;;;1.21;100.00;101893.44;2606806;36;20606;-53
2022/04/11 02:54:08;;;;;;;5.82;3.15;;;;;;;1.12;100.00;101896.34;2606964;36;20057;-52
2022/04/11 02:56:39;;;;;;;;;;;;;;;1.12;100.00;101896.34;2606041;36;20527;-53
2022/04/11 02:59:07;;;;;;;5.35;3.38;;;;;;;1.10;100.00;101896.41;2605999;36;19951;-54
2022/04/11 03:01:36;;;;;;;5.90;3.38;;;;;;;1.13;100.00;101896.31;2606473;36;20439;-54
2022/04/11 03:04:04;;;;;;;7.60;4.32;;;;;;;1.14;100.00;101892.75;2605329;31;20041;-51
2022/04/11 03:06:32;;;;;;;7.47;4.15;;;;;;;1.22;100.00;101893.38;2603452;36;20030;-55
2022/04/11 03:09:00;;;;;;;7.45;4.63;;;;;;;1.18;100.00;101886.44;2605946;36;20038;-53
2022/04/11 03:11:29;;;;;;;7.80;4.15;;;;;;;1.18;100.00;101890.88;2605499;36;20700;-53
2022/04/11 03:14:00;;;;;;;8.43;3.83;;;;;;;1.12;100.00;101891.06;2606394;36;20045;-55
2022/04/11 03:16:28;;;;;;;7.88;4.10;;;;;;;1.14;100.00;101890.09;2605865;36;20181;-54
2022/04/11 03:18:56;;;;;;;6.10;3.67;;;;;;;1.18;100.00;101886.44;2606362;31;20031;-53
2022/04/11 03:21:25;;;;;;;6.65;3.47;;;;;;;1.20;100.00;101891.69;2606294;36;21065;-55
2022/04/11 03:23:53;;;;;;;7.13;3.42;;;;;;;1.14;100.00;101878.63;2607033;36;20038;-54
2022/04/11 03:26:21;;;;;;;5.60;3.30;;;;;;;1.14;100.00;101878.63;2605619;36;20830;-56
2022/04/11 03:28:49;;;;;;;5.57;3.47;;;;;;;1.13;100.00;101875.09;2605800;36;20816;-54
2022/04/11 03:31:20;;;;;;;7.03;3.85;;;;;;;1.13;100.00;101883.06;2606536;36;20534;-54
2022/04/11 03:33:48;;;;;;;5.40;3.40;;;;;;;1.15;100.00;101869.75;2605407;36;20145;-53
2022/04/11 03:36:17;;;;;;;8.13;3.53;;;;;;;1.17;100.00;101874.09;2606669;36;20030;-55
2022/04/11 03:38:45;;;;;;;4.72;3.13;;;;;;;1.21;100.00;101869.56;2605715;36;20035;-57
2022/04/11 03:41:13;;;;;;;5.95;3.28;;;;;;;1.22;100.00;101872.16;2606057;36;20065;-52
2022/04/11 03:43:41;;;;;;;6.95;3.75;;;;;;;1.23;100.00;101873.03;2605254;36;20069;-51
2022/04/11 03:46:10;;;;;;;10.32;4.10;;;;;;;1.21;100.00;101865.13;2605896;31;20153;-53
2022/04/11 03:48:40;;;;;;;6.80;3.70;;;;;;;1.26;100.00;101872.06;2606044;36;20035;-47
2022/04/11 03:51:10;;;;;;;8.07;3.63;;;;;;;1.31;100.00;101871.00;2605455;36;20042;-52
2022/04/11 03:53:38;;;;;;;5.28;3.00;;;;;;;1.38;100.00;101868.97;2605419;36;20052;-56
2022/04/11 03:56:06;;;;;;;6.57;3.45;;;;;;;1.43;100.00;101868.81;2605158;36;20120;-57
2022/04/11 03:58:35;;;;;;;11.53;4.03;;;;;;;1.53;100.00;101867.59;2605783;36;20216;-50
2022/04/11 04:01:03;;;;;;;5.55;3.72;;;;;;;1.56;100.00;101871.03;2604650;36;20039;-54
2022/04/11 04:03:31;;;;;;;8.48;3.95;;;;;;;1.62;100.00;101869.94;2606637;31;20182;-51
2022/04/11 04:06:02;;;;;;;7.43;4.35;;;;;;;1.68;100.00;101864.41;2605783;36;20146;-57
2022/04/11 04:08:30;;;;;;;8.95;4.28;;;;;;;1.67;100.00;101860.03;2606852;36;20130;-56
2022/04/11 04:10:59;;;;;;;8.48;4.57;;;;;;;1.66;100.00;101854.75;2604596;36;20035;-52
2022/04/11 04:13:27;;;;;;;8.23;3.97;;;;;;;1.74;100.00;101864.19;2605619;36;20030;-52
2022/04/11 04:15:55;;;;;;;5.97;4.10;;;;;;;1.83;100.00;101863.00;2605105;36;20035;-56
2022/04/11 04:18:23;;;;;;;8.77;4.03;;;;;;;1.86;100.00;101856.72;2606398;31;20085;-52
2022/04/11 04:20:55;;;;;;;7.32;4.65;;;;;;;1.96;100.00;101855.47;2607589;39;20831;-51
2022/04/11 04:23:26;;;;;;;7.68;4.22;;;;;;;2.04;100.00;101856.03;2605962;36;20030;-54
2022/04/11 04:25:55;;;;;;;8.23;5.13;;;;;;;2.11;100.00;101848.72;2605440;36;20439;-54
2022/04/11 04:28:23;;;;;;;8.13;5.15;;;;;;;2.20;100.00;101852.81;2605899;36;20421;-53
2022/04/11 04:30:52;;;;;;;7.00;5.07;;;;;;;2.25;100.00;101851.72;2605879;36;20038;-53
2022/04/11 04:33:20;;;;;;;9.15;5.10;;;;;;;2.29;100.00;101844.50;2605606;36;20073;-50
2022/04/11 04:35:48;;;;;;;12.48;6.38;;;;;;;2.34;100.00;101847.84;2607099;36;20431;-49
2022/04/11 04:38:16;;;;;;;9.90;5.07;;;;;;;2.38;100.00;101846.78;2606567;36;20435;-52
2022/04/11 04:40:47;;;;;;;8.27;5.43;;;;;;;2.43;100.00;101847.50;2605854;36;20034;-51
2022/04/11 04:43:16;;;;;;;10.20;5.30;;;;;;;2.45;100.00;101845.63;2605833;31;20058;-50
2022/04/11 04:45:45;;;;;;;10.35;5.47;;;;;;;2.51;100.00;101849.84;2605658;31;20531;-55
2022/04/11 04:48:13;;;;;;;9.70;5.55;;;;;;;2.54;100.00;101854.19;2605473;36;20580;-55
2022/04/11 04:50:42;;;;;;;7.30;5.50;;;;;;;2.62;100.00;101852.06;2606601;36;20057;-54
2022/04/11 04:53:10;;;;;;;8.23;5.47;;;;;;;2.65;100.00;101851.09;2605732;36;20038;-52
2022/04/11 04:55:38;;;;;;;9.07;5.70;;;;;;;2.72;100.00;101848.13;2606081;31;20035;-51
2022/04/11 04:58:09;;;;;;;7.15;5.38;;;;;;;2.71;100.00;101846.41;2603977;36;20062;-53
2022/04/11 05:00:37;;;;;;;13.65;5.80;;;;;;;2.72;100.00;101837.50;2605791;36;20088;-56
2022/04/11 05:03:05;;;;;;;8.32;5.70;;;;;;;2.77;100.00;101838.19;2606279;36;20057;-52
2022/04/11 05:05:35;;;;;;;14.52;5.45;;;;;;;2.82;100.00;101842.47;2606719;36;20030;-51
2022/04/11 05:08:03;;;;;;;8.38;5.53;;;;;;;2.86;100.00;101842.28;2607875;36;20173;-52
2022/04/11 05:10:31;;;;;;;9.90;6.07;;;;;;;2.89;100.00;101835.97;2607650;36;20793;-55
2022/04/11 05:12:59;;;;;;;7.20;5.32;;;;;;;2.89;100.00;101833.31;2607124;36;20038;-53
2022/04/11 05:15:31;;;;;;;9.52;5.63;;;;;;;2.94;100.00;101836.63;2605970;36;20069;-53
2022/04/11 05:17:59;;;;;;;9.85;6.20;;;;;;;3.00;100.00;101830.22;2606931;36;20038;-54
2022/04/11 05:20:27;;;;;;;8.98;6.15;;;;;;;3.04;100.00;101821.19;2606689;36;20039;-55
2022/04/11 05:22:55;;;;;;;10.23;5.95;;;;;;;3.14;100.00;101818.06;2606855;36;20559;-52
2022/04/11 05:25:24;;;;;;;12.57;7.25;;;;;;;3.24;100.00;101818.53;2607371;31;20530;-57
2022/04/11 05:27:52;;;;;;;10.02;6.78;;;;;;;3.32;100.00;101827.03;2606877;31;20054;-54
2022/04/11 05:30:20;;;;;;;13.07;7.50;;;;;;;3.40;100.00;101818.75;2605223;36;20057;-56
2022/04/11 05:32:51;;;;;;;9.85;6.68;;;;;;;3.44;100.00;101830.13;2606256;36;20064;-57
2022/04/11 05:35:19;;;;;;;11.43;7.57;;;;;;;3.46;100.00;101826.47;2607142;36;20031;-53
2022/04/11 05:37:48;;;;;;;13.10;7.43;;;;;;;3.51;100.00;101821.81;2607371;36;20038;-56
2022/04/11 05:40:16;;;;;;;12.35;7.95;;;;;;;3.58;100.00;101829.50;2606911;36;20034;-51
2022/04/11 05:42:44;;;;;;;11.60;7.72;;;;;;;3.65;100.00;101839.84;2607103;36;20158;-55
2022/04/11 05:45:13;;;;;;;11.02;6.95;;;;;;;3.78;100.00;101837.50;2606262;36;20158;-54
2022/04/11 05:47:41;;;;;;;9.87;7.50;;;;;;;3.79;100.00;101833.91;2605841;36;20037;-52
2022/04/11 05:50:12;;;;;;;9.23;7.00;;;;;;;3.79;100.00;101836.56;2606069;36;20318;-54
2022/04/11 05:52:41;;;;;;;11.05;7.43;;;;;;;3.92;100.00;101836.03;2606493;36;20146;-55
2022/04/11 05:55:10;;;;;;;11.25;7.07;;;;;;;4.01;100.00;101832.94;2607641;31;20034;-52
2022/04/11 05:57:38;;;;;;;12.18;7.35;;;;;;;4.06;100.00;101827.41;2605894;36;20165;-51
2022/04/11 06:00:08;;;;;;;10.68;7.35;;;;;;;4.08;100.00;101834.41;2606649;36;20057;-52
2022/04/11 06:02:36;;;;;;;13.65;7.07;;;;;;;4.06;100.00;101838.91;2606713;36;20476;-55
2022/04/11 06:05:04;;;;;;;12.63;7.45;;;;;;;4.02;100.00;101835.53;2606947;36;20247;-55
2022/04/11 06:07:35;;;;;;;11.27;7.50;;;;;;;4.13;100.00;101840.38;2606269;36;20555;-53
2022/04/11 06:10:03;;;;;;;11.85;7.47;;;;;;;4.04;100.00;101832.81;2607251;36;20194;-55
2022/04/11 06:12:31;;;;;;;12.30;8.05;;;;;;;4.06;100.00;101843.38;2607763;36;20543;-56
2022/04/11 06:15:00;;;;;;;12.50;7.50;;;;;;;4.11;100.00;101847.56;2606925;36;20743;-57
2022/04/11 06:17:28;;;;;;;11.88;7.72;;;;;;;4.20;100.00;101847.16;2606651;36;20043;-52
2022/04/11 06:19:59;;;;;;;9.40;6.95;;;;;;;4.37;100.00;101851.72;2606943;36;20888;-57
2022/04/11 06:22:28;;;;;;;10.20;7.50;;;;;;;4.62;100.00;101855.00;2603912;36;20065;-55
2022/04/11 06:25:05;;;;;;;10.55;7.40;;;;;;;4.94;100.00;101856.13;2596512;36;20064;-55
2022/04/11 06:27:34;;;;;;;8.27;6.70;;;;;;;5.08;100.00;101847.44;2607198;36;20058;-55
2022/04/11 06:30:02;;;;;;;10.85;7.13;;;;;;;5.54;100.00;101855.78;2603173;36;20035;-53
2022/04/11 06:32:31;;;;;;;10.68;7.15;;;;;;;5.58;100.00;101848.47;2603897;36;20607;-52
2022/04/11 06:35:00;;;;;;;9.70;7.38;;;;;;;5.75;100.00;101844.94;2605782;36;20152;-53
2022/04/11 06:37:28;;;;;;;8.88;6.85;;;;;;;6.05;100.00;101846.94;2604274;31;20038;-55
2022/04/11 06:39:58;;;;;;;12.30;6.78;;;;;;;6.27;100.00;101847.53;2604511;36;20042;-56
2022/04/11 06:42:28;;;;;;;11.00;7.07;;;;;;;6.64;100.00;101845.47;2603359;36;20221;-53
2022/04/11 06:44:57;;;;;;;9.35;6.65;;;;;;;6.73;100.00;101849.44;2604967;36;20041;-53
2022/04/11 06:47:25;;;;;;;8.60;6.40;;;;;;;6.65;100.00;101841.88;2604760;36;20073;-53
2022/04/11 06:49:53;;;;;;;10.93;6.65;;;;;;;6.89;100.00;101843.22;2605342;36;20065;-55
2022/04/11 06:52:21;;;;;;;7.90;6.05;;;;;;;6.82;100.00;101848.06;2604637;36;20064;-55
2022/04/11 06:54:50;;;;;;;7.93;6.03;;;;;;;6.99;100.00;101834.59;2603810;36;20090;-56
2022/04/11 06:57:18;;;;;;;7.82;6.53;;;;;;;7.05;100.00;101837.84;2604578;31;20038;-56
2022/04/11 06:59:49;;;;;;;8.13;6.78;;;;;;;7.15;100.00;101839.88;2603520;31;20034;-52
2022/04/11 07:02:17;;;;;;;7.85;6.03;;;;;;;6.96;100.00;101845.47;2603012;36;20061;-53
2022/04/11 07:04:45;;;;;;;12.73;6.40;;;;;;;7.04;100.00;101838.78;2604747;36;20164;-57
2022/04/11 07:07:13;;;;;;;9.13;6.07;;;;;;;6.95;100.00;101841.06;2604511;36;20038;-49
2022/04/11 07:09:42;;;;;;;8.77;6.20;;;;;;;6.87;100.00;101843.31;2605503;31;20176;-55
2022/04/11 07:12:10;;;;;;;9.52;7.20;;;;;;;7.02;100.00;101828.16;2604105;36;22449;-54
2022/04/11 07:14:38;;;;;;;9.18;6.57;;;;;;;6.98;100.00;101843.56;2605201;36;20069;-53
2022/04/11 07:17:09;;;;;;;8.18;5.68;;;;;;;6.96;100.00;101833.88;2605795;31;20070;-52
2022/04/11 07:19:37;;;;;;;7.53;5.70;;;;;;;7.15;100.00;101842.56;2604241;36;22113;-53
2022/04/11 07:22:06;;;;;;;7.47;5.25;;;;;;;7.45;100.00;101833.69;2603314;31;20054;-54
2022/04/11 07:24:34;;;;;;;6.93;5.68;;;;;;;7.50;100.00;101834.25;2598253;36;20043;-55
2022/04/11 07:27:03;;;;;;;6.80;5.45;;;;;;;7.32;100.00;101830.88;2605677;36;20604;-55
2022/04/11 07:29:32;;;;;;;7.47;5.40;;;;;;;7.54;100.00;101832.28;2604249;36;20575;-53
2022/04/11 07:32:00;;;;;;;8.75;5.45;;;;;;;7.81;100.00;101831.53;2597757;36;20035;-53
2022/04/11 07:34:31;;;;;;;8.77;5.45;;;;;;;7.78;100.00;101834.41;2605197;36;20150;-54
2022/04/11 07:36:59;;;;;;;7.75;5.10;;;;;;;7.86;100.00;101824.06;2604157;31;20597;-54
2022/04/11 07:39:29;;;;;;;6.95;4.88;;;;;;;8.29;100.00;101821.41;2605076;36;20035;-54
2022/04/11 07:41:57;;;;;;;6.95;5.00;;;;;;;8.58;100.00;101821.34;2603822;36;20030;-54
2022/04/11 07:44:25;;;;;;;10.33;5.57;;;;;;;8.76;100.00;101814.81;2604466;36;20046;-51
2022/04/11 07:46:54;;;;;;;11.45;5.60;;;;;;;8.75;100.00;101809.53;2604377;36;20034;-55
2022/04/11 07:49:22;;;;;;;10.00;5.75;;;;;;;8.75;100.00;101807.69;2604404;36;20034;-53
2022/04/11 07:51:53;;;;;;;14.32;6.15;;;;;;;8.84;100.00;101805.38;2605609;36;20035;-56
2022/04/11 07:54:21;;;;;;;11.40;5.82;;;;;;;9.18;100.00;101798.59;2605177;36;20518;-54
2022/04/11 07:56:49;;;;;;;11.93;6.20;;;;;;;9.18;100.00;101795.91;2604266;36;20035;-54
2022/04/11 07:59:17;;;;;;;12.77;6.55;;;;;;;9.30;100.00;101796.91;2605224;36;20034;-53
2022/04/11 08:01:45;;;;;;;9.70;5.60;;;;;;;9.51;100.00;101804.47;2603474;36;21117;-53
2022/04/11 08:04:14;;;;;;;8.05;4.95;;;;;;;9.63;100.00;101803.63;2604453;36;20074;-54
2022/04/11 08:06:42;;;;;;;10.40;5.03;;;;;;;9.95;100.00;101793.28;2605145;36;20469;-54
2022/04/11 08:09:13;;;;;;;8.40;4.95;;;;;;;9.89;100.00;101792.84;2606312;36;20081;-56
2022/04/11 08:11:41;;;;;;;8.45;5.00;;;;;;;9.95;100.00;101795.09;2605784;36;20034;-54
2022/04/11 08:14:09;;;;;;;8.10;5.07;;;;;;;10.00;100.00;101790.28;2603723;31;20034;-52
2022/04/11 08:16:37;;;;;;;7.60;4.80;;;;;;;10.10;100.00;101791.34;2604131;36;20170;-53
2022/04/11 08:19:06;;;;;;;7.82;5.03;;;;;;;10.29;98.69;101788.19;2604668;31;20891;-57
2022/04/11 08:21:34;;;;;;;7.30;4.68;;;;;;;10.37;100.00;101786.81;2606519;31;20030;-53
2022/04/11 08:24:02;;;;;;;8.35;4.90;;;;;;;10.45;95.73;101784.38;2605978;36;20061;-55
2022/04/11 08:26:33;;;;;;;9.07;5.25;;;;;;;10.56;100.00;101784.47;2605234;36;20038;-56
2022/04/11 08:29:01;;;;;;;8.45;5.18;;;;;;;10.69;96.82;101787.13;2604352;31;20471;-55
2022/04/11 08:31:29;;;;;;;7.40;5.13;;;;;;;10.58;99.17;101781.66;2597958;36;20034;-56
2022/04/11 08:33:58;;;;;;;6.63;5.00;;;;;;;10.58;100.00;101774.44;2605335;36;20038;-53
2022/04/11 08:36:26;;;;;;;7.63;4.47;;;;;;;10.71;100.00;101773.53;2595006;36;20034;-54
2022/04/11 08:38:54;;;;;;;6.68;4.95;;;;;;;10.74;100.00;101776.84;2604450;36;20069;-51
2022/04/11 08:41:23;;;;;;;9.03;4.87;;;;;;;11.02;93.06;101772.06;2606399;36;20030;-53
2022/04/11 08:43:55;;;;;;;8.50;4.90;;;;;;;11.34;100.00;101774.16;2605217;31;20322;-53
2022/04/11 08:46:23;;;;;;;8.82;4.97;;;;;;;11.47;94.40;101769.53;2602551;31;20038;-54
2022/04/11 08:48:52;;;;;;;7.32;4.80;;;;;;;11.57;100.00;101762.44;2605679;36;20042;-54
2022/04/11 08:51:20;;;;;;;9.63;4.90;;;;;;;11.47;100.00;101755.16;2604233;36;20069;-55
2022/04/11 08:53:49;;;;;;;9.45;5.05;;;;;;;11.71;96.22;101755.09;2604470;36;20042;-57
2022/04/11 08:56:17;;;;;;;7.15;4.90;;;;;;;11.65;82.90;101751.03;2603238;36;20423;-54
2022/04/11 08:58:46;;;;;;;9.07;4.90;;;;;;;11.82;79.31;101755.09;2603702;36;20670;-55
2022/04/11 09:01:17;;;;;;;7.10;4.47;;;;;;;12.26;84.86;101757.91;2604246;36;20038;-56
2022/04/11 09:03:46;;;;;;;8.73;5.10;;;;;;;12.11;69.64;101751.91;2605051;36;20560;-51
2022/04/11 09:06:15;;;;;;;7.67;4.83;;;;;;;12.23;77.68;101758.16;2603464;36;20034;-54
2022/04/11 09:08:45;;;;;;;7.82;5.22;;;;;;;12.33;70.34;101750.19;2605579;36;20038;-56
2022/04/11 09:11:13;;;;;;;7.95;5.32;;;;;;;12.57;68.78;101745.47;2603989;36;20065;-56
2022/04/11 09:13:53;;;;;;;7.22;4.88;;;;;;;12.50;72.71;101746.06;2604590;31;20073;-53
2022/04/11 09:16:24;;;;;;;9.13;6.65;;;;;;;12.55;68.02;101742.00;2604085;36;20031;-51
2022/04/11 09:18:53;;;;;;;8.93;6.50;;;;;;;12.67;67.16;101739.28;2604560;36;20578;-55
2022/04/11 09:21:23;;;;;;;10.57;6.25;;;;;;;12.77;66.38;101735.66;2603175;36;20480;-51
2022/04/11 09:23:52;;;;;;;9.95;6.70;;;;;;;13.05;74.25;101736.03;2604417;36;20041;-55
2022/04/11 09:26:23;;;;;;;12.68;8.60;;;;;;;13.05;70.22;101732.50;2605115;36;20042;-52
2022/04/11 09:29:02;;;;;;;9.00;7.80;;;;;;;12.93;62.15;101728.97;2605471;31;20034;-52
2022/04/11 09:31:34;;;;;;;9.88;7.15;;;;;;;13.06;62.05;101731.47;2605508;36;22309;-54
2022/04/11 09:34:16;;;;;;;10.48;6.50;;;;;;;13.16;64.92;101724.28;2604377;36;20161;-54
2022/04/11 09:36:49;;;;;;;9.88;5.72;;;;;;;13.10;61.75;101725.72;2597834;36;20035;-57
2022/04/11 09:39:21;;;;;;;9.45;5.80;;;;;;;13.22;60.08;101723.78;2602177;36;20038;-54
2022/04/11 09:41:50;;;;;;;9.70;5.85;;;;;;;13.24;57.57;101729.06;2602774;36;20402;-52
2022/04/11 09:44:25;;;;;;;8.65;5.97;;;;;;;13.23;60.54;101724.63;2595019;36;20558;-55
2022/04/11 09:46:57;;;;;;;9.20;5.90;;;;;;;13.62;68.97;101714.09;2604303;36;20035;-51
2022/04/11 09:49:26;;;;;;;8.35;6.40;;;;;;;13.51;59.85;101712.31;2604273;31;20030;-56
2022/04/11 09:52:06;;;;;;;8.40;6.40;;;;;;;13.71;59.30;101713.25;2604293;36;20094;-57
2022/04/11 09:54:35;;;;;;;7.20;5.95;;;;;;;13.85;58.19;101709.31;2605553;36;20041;-52
2022/04/11 09:57:05;;;;;;;10.35;6.63;;;;;;;13.72;60.02;101714.13;2605779;36;20041;-53
2022/04/11 09:59:34;;;;;;;9.93;7.28;;;;;;;14.07;57.59;101704.69;2607745;31;20479;-57
2022/04/11 10:02:06;;;;;;;;;;;;;;;14.04;54.20;101716.66;2604929;31;21738;-52
2022/04/11 10:04:35;;;;;;;9.45;6.65;;;;;;;13.89;56.65;101715.34;2606889;36;19946;-57
2022/04/11 10:07:03;;;;;;;10.38;8.73;;;;;;;13.73;55.72;101711.28;2604328;36;20038;-55
2022/04/11 10:09:32;;;;;;;11.63;8.60;;;;;;;13.97;56.45;101708.25;2605546;36;20162;-55
2022/04/11 10:12:04;;;;;;;14.05;8.10;;;;;;;14.01;57.58;101708.81;2606753;36;20173;-55
2022/04/11 10:14:32;;;;;;;12.30;8.70;;;;;;;13.94;55.17;101700.41;2606661;36;20034;-53
2022/04/11 10:17:03;;;;;;;9.95;8.93;;;;;;;14.08;54.46;101692.88;2606609;36;20137;-53
2022/04/11 10:19:36;;;;;;;12.98;8.57;;;;;;;14.06;57.45;101694.84;2605679;36;20594;-57
2022/04/11 10:22:06;;;;;;;11.32;7.88;;;;;;;14.25;59.66;101694.03;2605554;36;20038;-58
2022/04/11 10:24:36;;;;;;;12.68;7.82;;;;;;;13.93;55.01;101687.84;2605944;36;20129;-53
2022/04/11 10:27:20;;;;;;;11.35;7.97;;;;;;;13.94;56.48;101694.09;2607559;36;20748;-56
2022/04/11 10:29:50;;;;;;;15.43;8.32;;;;;;;14.04;57.68;101686.88;2605875;36;20046;-58
2022/04/11 10:32:20;;;;;;;10.75;8.35;;;;;;;13.99;56.81;101697.28;2606734;36;20038;-56
2022/04/11 10:34:53;;;;;;;10.95;8.82;;;;;;;14.07;54.66;101681.19;2606410;36;20038;-55
2022/04/11 10:37:24;;;;;;;11.90;8.77;;;;;;;14.41;57.12;101688.09;2604748;36;20073;-54
2022/04/11 10:39:53;;;;;;;13.45;8.98;;;;;;;14.56;55.67;101686.69;2604971;36;20126;-55
2022/04/11 10:42:24;;;;;;;10.00;8.98;;;;;;;14.63;55.82;101684.28;2606328;36;20034;-55
2022/04/11 10:44:54;;;;;;;11.30;8.38;;;;;;;14.50;54.57;101679.97;2598438;36;20038;-55
2022/04/11 10:47:36;;;;;;;12.02;8.38;;;;;;;14.50;54.46;101681.81;2606155;36;20122;-55
2022/04/11 10:50:28;;;;;;;9.75;8.15;;;;;;;14.51;55.13;101678.13;2606508;36;20053;-56
2022/04/11 10:53:23;;;;;;;11.30;7.65;;;;;;;14.68;55.42;101691.00;2604873;36;20030;-55
2022/04/11 10:56:08;;;;;;;10.32;8.00;;;;;;;14.49;58.27;101680.13;2606054;36;20038;-57
2022/04/11 10:58:48;;;;;;;12.38;8.48;;;;;;;14.21;53.10;101688.06;2606099;36;20062;-52
2022/04/11 11:01:38;;;;;;;9.05;6.57;;;;;;;14.75;53.59;101679.56;2605503;36;20042;-57
2022/04/11 11:04:18;;;;;;;9.07;7.22;;;;;;;14.64;53.19;101667.88;2606261;31;20483;-55
2022/04/11 11:06:49;;;;;;;11.00;7.45;;;;;;;14.69;54.37;101675.56;2606937;36;20471;-55
2022/04/11 11:09:18;;;;;;;10.32;7.35;;;;;;;14.82;52.10;101664.44;2607257;36;20165;-55
2022/04/11 11:11:48;;;;;;;9.85;6.72;;;;;;;14.94;50.53;101657.84;2606077;36;20133;-52
2022/04/11 11:14:48;;;;;;;13.55;7.30;;;;;;;14.80;49.53;101659.19;2605770;36;20030;-56
2022/04/11 11:17:17;;;;;;;8.52;6.32;;;;;;;14.74;52.79;101657.06;2606366;36;20057;-55
2022/04/11 11:20:03;;;;;;;14.03;7.23;;;;;;;14.84;51.62;101640.75;2607276;36;20196;-55
2022/04/11 11:22:57;;;;;;;10.10;6.85;;;;;;;15.34;51.45;101643.22;2603626;36;20057;-51
2022/04/11 11:25:25;;;;;;;7.82;6.30;;;;;;;15.12;49.32;101635.44;2606030;31;20900;-53
2022/04/11 11:27:53;;;;;;;9.35;6.40;;;;;;;14.90;50.96;101629.34;2606992;36;20162;-54
2022/04/11 11:30:23;;;;;;;9.27;6.50;;;;;;;14.96;51.09;101631.47;2605085;36;20059;-57
2022/04/11 11:32:51;;;;;;;8.93;6.35;;;;;;;14.87;52.37;101627.78;2605050;36;20077;-57
2022/04/11 11:35:19;;;;;;;7.80;6.70;;;;;;;14.92;50.21;101624.63;2606473;36;20129;-54
2022/04/11 11:37:51;;;;;;;8.27;6.30;;;;;;;15.30;49.55;101609.25;2605544;36;20038;-58
2022/04/11 11:40:21;;;;;;;8.18;6.72;;;;;;;15.13;50.05;101620.88;2605540;31;20057;-56
2022/04/11 11:42:49;;;;;;;9.10;6.38;;;;;;;15.37;49.38;101601.38;2605846;36;20034;-52
2022/04/11 11:45:28;;;;;;;8.90;6.10;;;;;;;15.20;49.69;101603.00;2605492;36;22007;-57
2022/04/11 11:47:57;;;;;;;8.05;5.95;;;;;;;15.22;49.23;101601.00;2607408;36;20049;-57
2022/04/11 11:50:25;;;;;;;9.60;6.35;;;;;;;15.12;49.39;101597.47;2600083;36;21253;-56
2022/04/11 11:53:06;;;;;;;9.13;5.47;;;;;;;15.35;50.81;101595.25;2599007;36;20094;-57
2022/04/11 11:55:34;;;;;;;6.78;5.47;;;;;;;15.68;53.65;101595.63;2606270;36;20046;-55
2022/04/11 11:58:06;;;;;;;7.32;5.72;;;;;;;15.34;49.47;101591.69;2607143;36;20049;-56
2022/04/11 12:00:35;;;;;;;9.10;5.57;;;;;;;15.59;49.16;101586.53;2605636;36;20117;-54
2022/04/11 12:05:45;;;;;;;7.55;4.63;;;;;;;15.85;54.78;101586.72;2607023;31;20423;-58
2022/04/11 12:08:18;;;;;;;7.90;4.70;;;;;;;15.66;48.74;101571.38;2605825;31;20034;-55
2022/04/11 12:10:48;;;;;;;6.90;4.35;;;;;;;15.80;51.18;101574.59;2606232;36;20306;-57
2022/04/11 12:13:23;;;;;;;6.93;4.90;;;;;;;15.66;47.97;101565.94;2606780;36;20042;-53
2022/04/11 12:15:55;;;;;;;9.23;4.65;;;;;;;15.77;49.81;101564.91;2606982;36;20514;-57
2022/04/11 12:18:24;;;;;;;7.40;4.65;;;;;;;15.72;48.79;101570.78;2604946;36;20042;-50
2022/04/11 12:20:52;;;;;;;5.63;4.07;;;;;;;15.80;49.19;101563.75;2605870;36;20231;-55